createdAt,value
2023-05-09T00:01:17.945Z,101298.37
2023-05-09T00:04:32.982Z,101304.91
2023-05-09T00:07:34.977Z,101305.75
2023-05-09T00:10:51.032Z,101295.00
2023-05-09T00:13:58.966Z,101299.25
2023-05-09T00:17:14.262Z,101306.00
2023-05-09T00:20:28.965Z,101301.87
2023-05-09T00:23:38.606Z,101293.66
2023-05-09T00:26:52.935Z,101297.19
2023-05-09T00:29:54.567Z,101292.38
2023-05-09T00:33:09.060Z,101284.16
2023-05-09T00:36:16.950Z,101285.59
2023-05-09T00:39:31.998Z,101279.03
2023-05-09T00:42:40.326Z,101276.94
2023-05-09T00:45:55.948Z,101286.25
2023-05-09T00:49:03.972Z,101272.53
2023-05-09T00:52:12.507Z,101257.03
2023-05-09T00:55:21.956Z,101288.63
2023-05-09T00:58:30.475Z,101274.91
2023-05-09T01:01:40.011Z,101274.19
2023-05-09T01:04:55.269Z,101279.69
2023-05-09T01:08:19.993Z,101288.19
2023-05-09T01:11:36.220Z,101285.47
2023-05-09T01:14:53.008Z,101283.47
2023-05-09T01:18:12.184Z,101285.63
2023-05-09T01:21:26.997Z,101282.94
2023-05-09T01:25:01.913Z,101275.97
2023-05-09T01:28:28.018Z,101277.84
2023-05-09T01:31:47.198Z,101276.34
2023-05-09T01:34:58.362Z,101278.38
2023-05-09T01:38:09.278Z,101274.69
2023-05-09T01:41:26.069Z,101280.03
2023-05-09T01:44:38.872Z,101276.22
2023-05-09T01:47:56.001Z,101265.72
2023-05-09T01:51:05.991Z,101259.09
2023-05-09T01:54:16.459Z,101265.28
2023-05-09T01:57:28.290Z,101257.03
2023-05-09T02:00:44.132Z,101266.44
2023-05-09T02:03:48.642Z,101273.87
2023-05-09T02:07:04.318Z,101267.09
2023-05-09T02:10:13.100Z,101251.09
2023-05-09T02:13:28.147Z,101255.94
2023-05-09T02:16:37.006Z,101259.22
2023-05-09T02:19:45.519Z,101254.09
2023-05-09T02:23:00.006Z,101253.84
2023-05-09T02:26:02.585Z,101254.69
2023-05-09T02:29:17.013Z,101224.25
2023-05-09T02:32:31.338Z,101254.09
2023-05-09T02:35:50.321Z,101256.94
2023-05-09T02:38:52.552Z,101250.16
2023-05-09T02:42:17.110Z,101245.75
2023-05-09T02:45:27.378Z,101251.47
2023-05-09T02:48:35.989Z,101243.28
2023-05-09T02:51:51.005Z,101248.66
2023-05-09T02:54:52.723Z,101246.66
2023-05-09T02:58:14.333Z,101246.66
2023-05-09T03:01:24.121Z,101243.78
2023-05-09T03:04:32.561Z,101249.16
2023-05-09T03:07:41.032Z,101241.72
2023-05-09T03:10:56.061Z,101238.56
2023-05-09T03:14:04.877Z,101249.97
2023-05-09T03:17:13.325Z,101239.03
2023-05-09T03:20:28.056Z,101241.50
2023-05-09T03:23:29.728Z,101236.78
2023-05-09T03:26:45.057Z,101235.56
2023-05-09T03:30:00.087Z,101236.06
2023-05-09T03:33:08.607Z,101231.56
2023-05-09T03:36:17.097Z,101244.34
2023-05-09T03:39:32.088Z,101240.37
2023-05-09T03:42:40.577Z,101245.62
2023-05-09T03:45:55.121Z,101250.63
2023-05-09T03:49:10.138Z,101251.53
2023-05-09T03:52:25.412Z,101253.03
2023-05-09T03:55:27.156Z,101257.91
2023-05-09T03:58:42.069Z,101249.63
2023-05-09T04:01:50.749Z,101255.34
2023-05-09T04:04:59.071Z,101247.31
2023-05-09T04:08:14.021Z,101247.41
2023-05-09T04:11:22.098Z,101249.78
2023-05-09T04:14:33.648Z,101255.25
2023-05-09T04:17:42.173Z,101244.34
2023-05-09T04:20:57.082Z,101252.22
2023-05-09T04:24:12.093Z,101251.84
2023-05-09T04:27:20.090Z,101259.78
2023-05-09T04:30:28.619Z,101252.69
2023-05-09T04:33:43.074Z,101255.06
2023-05-09T04:36:51.079Z,101255.62
2023-05-09T04:40:06.735Z,101258.06
2023-05-09T04:43:18.353Z,101253.25
2023-05-09T04:46:33.184Z,101265.34
2023-05-09T04:49:41.996Z,101262.12
2023-05-09T04:52:50.131Z,101261.56
2023-05-09T04:55:58.613Z,101260.87
2023-05-09T04:59:13.122Z,101257.19
2023-05-09T05:02:21.125Z,101265.56
2023-05-09T05:05:30.003Z,101266.00
2023-05-09T05:08:45.179Z,101255.38
2023-05-09T05:12:02.963Z,101253.53
2023-05-09T05:15:13.143Z,101250.16
2023-05-09T05:18:28.118Z,101271.72
2023-05-09T05:21:36.629Z,101265.47
2023-05-09T05:24:51.808Z,101265.19
2023-05-09T05:27:59.594Z,101264.37
2023-05-09T05:31:14.111Z,101271.88
2023-05-09T05:34:22.085Z,101268.94
2023-05-09T05:37:30.607Z,101266.69
2023-05-09T05:40:45.079Z,101267.97
2023-05-09T05:44:08.085Z,101268.53
2023-05-09T05:47:23.130Z,101257.34
2023-05-09T05:50:31.619Z,101255.94
2023-05-09T05:53:40.597Z,101263.59
2023-05-09T05:56:48.712Z,101266.56
2023-05-09T05:59:58.120Z,101263.00
2023-05-09T06:03:15.176Z,101260.03
2023-05-09T06:06:24.391Z,101260.87
2023-05-09T06:09:39.154Z,101258.44
2023-05-09T06:12:47.704Z,101266.63
2023-05-09T06:15:57.746Z,101266.03
2023-05-09T06:19:10.663Z,101263.22
2023-05-09T06:22:25.219Z,101270.13
2023-05-09T06:25:33.408Z,101259.94
2023-05-09T06:28:49.240Z,101258.41
2023-05-09T06:31:57.521Z,101254.41
2023-05-09T06:35:12.542Z,101246.97
2023-05-09T06:38:20.800Z,101242.47
2023-05-09T06:41:29.162Z,101246.56
2023-05-09T06:44:44.407Z,101253.50
2023-05-09T06:47:52.176Z,101248.09
2023-05-09T06:51:13.123Z,101241.44
2023-05-09T06:54:40.167Z,101235.59
2023-05-09T06:57:49.074Z,101234.56
2023-05-09T07:00:57.297Z,101231.91
2023-05-09T07:04:15.703Z,101227.34
2023-05-09T07:07:43.965Z,101227.16
2023-05-09T07:10:55.155Z,101219.78
2023-05-09T07:14:12.402Z,101225.12
2023-05-09T07:17:23.872Z,101219.97
2023-05-09T07:20:41.760Z,101213.69
2023-05-09T07:23:43.825Z,101211.78
2023-05-09T07:26:58.220Z,101204.56
2023-05-09T07:33:36.154Z,101203.56
2023-05-09T07:36:52.025Z,101193.75
2023-05-09T07:40:07.210Z,101193.09
2023-05-09T07:43:48.586Z,101199.47
2023-05-09T07:47:06.390Z,101196.53
2023-05-09T07:50:13.077Z,101170.28
2023-05-09T07:53:28.557Z,101177.78
2023-05-09T07:56:53.462Z,101182.44
2023-05-09T08:03:26.981Z,101179.47
2023-05-09T08:10:07.775Z,101166.25
2023-05-09T08:13:30.270Z,101163.44
2023-05-09T08:20:40.512Z,101151.03
2023-05-09T08:23:49.583Z,101151.03
2023-05-09T08:27:07.028Z,101151.53
2023-05-09T08:30:17.930Z,101151.22
2023-05-09T08:33:35.993Z,101150.16
2023-05-09T08:36:51.652Z,101152.06
2023-05-09T08:40:10.965Z,101148.09
2023-05-09T08:43:20.013Z,101144.72
2023-05-09T08:46:34.283Z,101135.72
2023-05-09T08:49:53.963Z,101147.44
2023-05-09T08:53:02.979Z,101139.09
2023-05-09T08:56:11.848Z,101134.31
2023-05-09T08:59:30.348Z,101136.13
2023-05-09T09:02:48.382Z,101134.12
2023-05-09T09:05:53.920Z,101124.13
2023-05-09T09:09:33.050Z,101122.59
2023-05-09T09:12:51.897Z,101118.06
2023-05-09T09:16:07.981Z,101113.28
2023-05-09T09:23:14.385Z,101106.28
2023-05-09T09:26:59.024Z,101108.03
2023-05-09T09:30:20.527Z,101112.56
2023-05-09T09:33:35.981Z,101102.72
2023-05-09T09:36:44.803Z,101094.53
2023-05-09T09:40:02.004Z,101093.16
2023-05-09T09:43:17.375Z,101094.44
2023-05-09T09:46:19.194Z,101105.94
2023-05-09T09:49:34.014Z,101098.59
2023-05-09T09:52:42.654Z,101102.41
2023-05-09T09:55:51.480Z,101091.94
2023-05-09T09:59:16.969Z,101087.38
2023-05-09T10:02:25.564Z,101077.59
2023-05-09T10:05:40.057Z,101090.22
2023-05-09T10:08:42.884Z,101075.94
2023-05-09T10:12:12.151Z,101078.66
2023-05-09T10:15:20.772Z,101083.66
2023-05-09T10:18:36.350Z,101077.16
2023-05-09T10:21:53.315Z,101073.66
2023-05-09T10:25:06.037Z,101079.91
2023-05-09T10:28:19.055Z,101067.31
2023-05-09T10:31:32.336Z,101062.94
2023-05-09T10:34:43.308Z,101073.72
2023-05-09T10:37:55.188Z,101065.69
2023-05-09T10:41:11.261Z,101057.69
2023-05-09T10:44:13.598Z,101063.19
2023-05-09T10:47:33.064Z,101063.56
2023-05-09T10:50:48.303Z,101064.03
2023-05-09T10:53:56.805Z,101051.75
2023-05-09T10:57:17.080Z,101061.44
2023-05-09T11:00:25.756Z,101053.56
2023-05-09T11:04:08.788Z,101050.63
2023-05-09T11:07:32.071Z,101064.47
2023-05-09T11:10:49.041Z,101054.34
2023-05-09T11:14:01.503Z,101040.37
2023-05-09T11:17:13.165Z,101046.81
2023-05-09T11:20:35.082Z,101036.59
2023-05-09T11:23:55.160Z,101023.06
2023-05-09T11:27:21.552Z,101031.91
2023-05-09T11:30:50.190Z,101025.81
2023-05-09T11:34:08.079Z,101017.88
2023-05-09T11:37:19.578Z,101024.44
2023-05-09T11:40:29.399Z,101025.69
2023-05-09T11:43:38.721Z,101031.91
2023-05-09T11:46:47.121Z,101015.41
2023-05-09T11:50:02.223Z,101011.38
2023-05-09T11:53:08.543Z,101013.25
2023-05-09T11:56:24.102Z,101013.28
2023-05-09T11:59:38.315Z,100998.41
2023-05-09T12:02:46.364Z,101002.22
2023-05-09T12:06:04.385Z,101003.44
2023-05-09T12:09:09.641Z,101004.03
2023-05-09T12:12:24.082Z,100997.38
2023-05-09T12:15:42.677Z,100996.31
2023-05-09T12:18:59.360Z,100999.22
2023-05-09T12:22:14.171Z,100985.97
2023-05-09T12:25:22.739Z,100986.13
2023-05-09T12:28:37.093Z,100985.94
2023-05-09T12:31:39.044Z,100981.31
2023-05-09T12:35:13.312Z,100977.41
2023-05-09T12:38:22.204Z,100969.28
2023-05-09T12:41:46.827Z,100972.19
2023-05-09T12:45:08.991Z,100962.44
2023-05-09T12:48:21.331Z,100955.63
2023-05-09T12:51:55.156Z,100962.91
2023-05-09T12:55:06.401Z,100950.81
2023-05-09T12:58:22.166Z,100943.94
2023-05-09T13:01:38.624Z,100940.88
2023-05-09T13:04:50.034Z,100944.19
2023-05-09T13:08:03.125Z,100932.72
2023-05-09T13:11:16.258Z,100941.78
2023-05-09T13:14:29.894Z,100934.38
2023-05-09T13:17:38.348Z,100922.69
2023-05-09T13:20:46.143Z,100922.00
2023-05-09T13:23:54.709Z,100916.28
2023-05-09T13:27:03.471Z,100914.78
2023-05-09T13:30:24.298Z,100922.47
2023-05-09T13:33:32.282Z,100914.63
2023-05-09T13:36:47.138Z,100896.88
2023-05-09T13:39:55.625Z,100919.22
2023-05-09T13:43:04.364Z,100917.97
2023-05-09T13:46:12.908Z,100913.28
2023-05-09T13:49:21.433Z,100900.91
2023-05-09T13:52:36.583Z,100902.88
2023-05-09T13:55:52.225Z,100909.16
2023-05-09T13:59:07.196Z,100904.75
2023-05-09T14:02:11.242Z,100881.16
2023-05-09T14:08:48.162Z,100888.22
2023-05-09T14:11:58.228Z,100876.88
2023-05-09T14:18:28.813Z,100873.59
2023-05-09T14:21:40.546Z,100876.94
2023-05-09T14:24:56.676Z,100868.75
2023-05-09T14:28:05.279Z,100865.81
2023-05-09T14:31:14.153Z,100858.41
2023-05-09T14:34:25.978Z,100859.06
2023-05-09T14:37:43.973Z,100863.22
2023-05-09T14:44:24.942Z,100859.47
2023-05-09T14:47:40.464Z,100857.87
2023-05-09T14:50:42.958Z,100856.25
2023-05-09T14:53:57.235Z,100852.97
2023-05-09T14:57:06.826Z,100848.47
2023-05-09T15:03:39.801Z,100838.62
2023-05-09T15:06:54.956Z,100845.25
2023-05-09T15:09:59.731Z,100846.66
2023-05-09T15:13:14.248Z,100829.69
2023-05-09T15:16:45.572Z,100829.50
2023-05-09T15:20:08.906Z,100825.81
2023-05-09T15:23:23.222Z,100819.63
2023-05-09T15:26:32.123Z,100814.81
2023-05-09T15:29:41.222Z,100822.59
2023-05-09T15:32:56.354Z,100822.59
2023-05-09T15:35:59.207Z,100810.22
2023-05-09T15:39:14.242Z,100803.66
2023-05-09T15:42:29.438Z,100810.97
2023-05-09T15:45:41.243Z,100810.59
2023-05-09T15:48:56.277Z,100806.81
2023-05-09T15:51:58.016Z,100813.13
2023-05-09T15:55:14.610Z,100808.84
2023-05-09T15:58:23.242Z,100805.94
2023-05-09T16:01:32.187Z,100794.56
2023-05-09T16:04:48.539Z,100787.66
2023-05-09T16:07:56.857Z,100785.91
2023-05-09T16:11:11.930Z,100791.31
2023-05-09T16:14:13.633Z,100786.16
2023-05-09T16:17:28.246Z,100782.34
2023-05-09T16:20:36.325Z,100785.87
2023-05-09T16:23:58.618Z,100780.84
2023-05-09T16:27:00.329Z,100802.63
2023-05-09T16:30:16.723Z,100790.19
2023-05-09T16:33:19.009Z,100795.50
2023-05-09T16:36:37.269Z,100795.38
2023-05-09T16:39:45.848Z,100783.22
2023-05-09T16:42:54.290Z,100783.56
2023-05-09T16:46:03.230Z,100778.03
2023-05-09T16:49:12.270Z,100772.25
2023-05-09T16:52:21.033Z,100766.53
2023-05-09T16:55:29.254Z,100768.87
2023-05-09T16:58:38.049Z,100770.28
2023-05-09T17:01:53.367Z,100764.41
2023-05-09T17:04:56.045Z,100765.25
2023-05-09T17:08:11.311Z,100758.00
2023-05-09T17:11:19.317Z,100762.41
2023-05-09T17:14:34.576Z,100762.63
2023-05-09T17:17:36.390Z,100759.25
2023-05-09T17:20:51.333Z,100763.22
2023-05-09T17:23:53.005Z,100767.94
2023-05-09T17:27:07.320Z,100764.47
2023-05-09T17:30:26.152Z,100770.19
2023-05-09T17:33:41.439Z,100758.69
2023-05-09T17:37:03.307Z,100766.84
2023-05-09T17:40:19.059Z,100762.63
2023-05-09T17:43:21.314Z,100769.66
2023-05-09T17:46:36.409Z,100760.75
2023-05-09T17:49:45.304Z,100765.22
2023-05-09T17:53:00.310Z,100759.44
2023-05-09T17:56:08.988Z,100761.12
2023-05-09T17:59:24.317Z,100759.09
2023-05-09T18:02:26.882Z,100760.28
2023-05-09T18:05:41.343Z,100758.09
2023-05-09T18:08:49.603Z,100761.16
2023-05-09T18:11:58.205Z,100760.34
2023-05-09T18:15:06.344Z,100765.03
2023-05-09T18:18:21.420Z,100756.22
2023-05-09T18:21:36.594Z,100765.75
2023-05-09T18:24:45.720Z,100775.31
2023-05-09T18:27:54.362Z,100779.22
2023-05-09T18:31:09.594Z,100781.66
2023-05-09T18:34:18.404Z,100782.00
2023-05-09T18:37:33.379Z,100784.44
2023-05-09T18:40:43.641Z,100778.25
2023-05-09T18:43:59.625Z,100792.19
2023-05-09T18:47:03.713Z,100794.78
2023-05-09T18:50:18.571Z,100789.22
2023-05-09T18:53:27.347Z,100791.28
2023-05-09T18:56:36.399Z,100802.87
2023-05-09T18:59:45.582Z,100794.22
2023-05-09T19:02:56.719Z,100807.50
2023-05-09T19:06:06.454Z,100801.75
2023-05-09T19:09:22.436Z,100796.06
2023-05-09T19:12:24.909Z,100800.63
2023-05-09T19:15:40.381Z,100808.44
2023-05-09T19:18:49.373Z,100808.16
2023-05-09T19:22:04.653Z,100806.44
2023-05-09T19:25:20.347Z,100803.91
2023-05-09T19:28:31.390Z,100794.62
2023-05-09T19:31:40.323Z,100796.81
2023-05-09T19:34:50.383Z,100795.50
2023-05-09T19:38:00.449Z,100795.50
2023-05-09T19:41:12.653Z,100794.66
2023-05-09T19:44:22.193Z,100789.75
2023-05-09T19:47:31.429Z,100793.00
2023-05-09T19:50:42.256Z,100794.88
2023-05-09T19:53:50.406Z,100788.28
2023-05-09T19:56:59.121Z,100781.72
2023-05-09T20:00:07.412Z,100793.06
2023-05-09T20:03:16.565Z,100792.41
2023-05-09T20:06:31.459Z,100784.66
2023-05-09T20:09:46.424Z,100784.97
2023-05-09T20:13:01.444Z,100781.97
2023-05-09T20:16:09.411Z,100784.03
2023-05-09T20:19:24.371Z,100789.28
2023-05-09T20:22:32.655Z,100785.44
2023-05-09T20:25:47.486Z,100787.44
2023-05-09T20:29:07.774Z,100782.22
2023-05-09T20:32:22.481Z,100780.22
2023-05-09T20:35:24.697Z,100777.00
2023-05-09T20:38:42.552Z,100777.34
2023-05-09T20:41:52.698Z,100775.50
2023-05-09T20:45:08.495Z,100778.38
2023-05-09T20:48:17.984Z,100766.88
2023-05-09T20:51:26.390Z,100763.84
2023-05-09T20:54:41.459Z,100761.47
2023-05-09T20:57:43.128Z,100767.09
2023-05-09T21:01:00.457Z,100762.00
2023-05-09T21:04:09.172Z,100763.38
2023-05-09T21:10:40.033Z,100758.78
2023-05-09T21:13:48.464Z,100763.88
2023-05-09T21:16:57.231Z,100757.12
2023-05-09T21:20:05.418Z,100751.22
2023-05-09T21:23:21.545Z,100758.84
2023-05-09T21:26:38.432Z,100760.00
2023-05-09T21:29:40.096Z,100761.00
2023-05-09T21:32:57.035Z,100752.25
2023-05-09T21:36:05.425Z,100752.06
2023-05-09T21:39:14.019Z,100753.06
2023-05-09T21:42:28.453Z,100751.87
2023-05-09T21:45:38.558Z,100749.69
2023-05-09T21:48:55.133Z,100757.12
2023-05-09T21:51:56.794Z,100748.50
2023-05-09T21:55:14.469Z,100748.00
2023-05-09T21:58:29.462Z,100753.06
2023-05-09T22:01:31.331Z,100753.06
2023-05-09T22:04:46.435Z,100752.91
2023-05-09T22:07:54.434Z,100747.19
2023-05-09T22:11:03.058Z,100753.59
2023-05-09T22:14:11.462Z,100749.88
2023-05-09T22:20:42.455Z,100745.63
2023-05-09T22:23:58.706Z,100755.44
2023-05-09T22:27:08.974Z,100751.56
2023-05-09T22:30:23.435Z,100742.09
2023-05-09T22:33:32.331Z,100741.59
2023-05-09T22:36:41.255Z,100750.91
2023-05-09T22:39:55.463Z,100743.09
2023-05-09T22:43:03.554Z,100744.97
2023-05-09T22:46:12.770Z,100748.03
2023-05-09T22:49:21.440Z,100744.78
2023-05-09T22:52:30.337Z,100743.47
2023-05-09T22:55:45.448Z,100740.94
2023-05-09T22:59:00.476Z,100741.44
2023-05-09T23:02:09.055Z,100737.88
2023-05-09T23:05:37.482Z,100740.41
2023-05-09T23:08:52.456Z,100743.62
2023-05-09T23:12:07.491Z,100739.56
2023-05-09T23:15:09.439Z,100731.63
2023-05-09T23:18:25.510Z,100739.56
2023-05-09T23:21:27.425Z,100738.87
2023-05-09T23:24:49.534Z,100733.84
2023-05-09T23:28:00.545Z,100739.91
2023-05-09T23:31:16.518Z,100740.94
2023-05-09T23:34:25.094Z,100732.47
2023-05-09T23:37:33.530Z,100729.28
2023-05-09T23:40:45.921Z,100732.50
2023-05-09T23:43:54.638Z,100731.97
2023-05-09T23:47:09.820Z,100726.72
2023-05-09T23:50:24.499Z,100722.00
2023-05-09T23:53:39.518Z,100723.03
2023-05-09T23:56:48.427Z,100717.94
2023-05-09T23:59:57.533Z,100717.09
